sensor_id;sensor_type;location;lat;lon;timestamp;P1;durP1;ratioP1;P2;durP2;ratioP2
52650;SDS011;38537;47.226;39.702;2022-07-29T00:01:40;11.88;;;9.60;;
52650;SDS011;38537;47.226;39.702;2022-07-29T00:04:08;11.57;;;8.75;;
52650;SDS011;38537;47.226;39.702;2022-07-29T00:06:36;10.90;;;9.40;;
52650;SDS011;38537;47.226;39.702;2022-07-29T00:09:03;10.32;;;9.23;;
52650;SDS011;38537;47.226;39.702;2022-07-29T00:11:31;9.98;;;8.98;;
52650;SDS011;38537;47.226;39.702;2022-07-29T00:13:58;10.70;;;9.25;;
52650;SDS011;38537;47.226;39.702;2022-07-29T00:16:25;12.25;;;10.00;;
52650;SDS011;38537;47.226;39.702;2022-07-29T00:18:53;12.48;;;10.02;;
52650;SDS011;38537;47.226;39.702;2022-07-29T00:21:20;16.10;;;9.68;;
52650;SDS011;38537;47.226;39.702;2022-07-29T00:23:47;10.85;;;9.75;;
52650;SDS011;38537;47.226;39.702;2022-07-29T00:26:15;10.57;;;9.43;;
52650;SDS011;38537;47.226;39.702;2022-07-29T00:28:42;15.13;;;9.93;;
52650;SDS011;38537;47.226;39.702;2022-07-29T00:31:09;15.60;;;9.77;;
52650;SDS011;38537;47.226;39.702;2022-07-29T00:33:37;13.90;;;10.25;;
52650;SDS011;38537;47.226;39.702;2022-07-29T00:36:04;12.48;;;10.30;;
52650;SDS011;38537;47.226;39.702;2022-07-29T00:38:32;11.98;;;10.60;;
52650;SDS011;38537;47.226;39.702;2022-07-29T00:40:59;12.82;;;10.38;;
52650;SDS011;38537;47.226;39.702;2022-07-29T00:43:26;13.02;;;10.40;;
52650;SDS011;38537;47.226;39.702;2022-07-29T00:45:54;13.23;;;9.52;;
52650;SDS011;38537;47.226;39.702;2022-07-29T00:48:21;13.93;;;10.23;;
52650;SDS011;38537;47.226;39.702;2022-07-29T00:50:49;12.88;;;9.93;;
52650;SDS011;38537;47.226;39.702;2022-07-29T00:53:16;12.82;;;9.63;;
52650;SDS011;38537;47.226;39.702;2022-07-29T00:55:43;11.88;;;9.98;;
52650;SDS011;38537;47.226;39.702;2022-07-29T00:58:11;12.77;;;10.60;;
52650;SDS011;38537;47.226;39.702;2022-07-29T01:00:41;16.17;;;10.80;;
52650;SDS011;38537;47.226;39.702;2022-07-29T01:03:11;11.70;;;10.52;;
52650;SDS011;38537;47.226;39.702;2022-07-29T01:05:39;13.50;;;10.52;;
52650;SDS011;38537;47.226;39.702;2022-07-29T01:08:17;14.70;;;10.95;;
52650;SDS011;38537;47.226;39.702;2022-07-29T01:10:46;11.52;;;9.80;;
52650;SDS011;38537;47.226;39.702;2022-07-29T01:13:15;13.65;;;11.23;;
52650;SDS011;38537;47.226;39.702;2022-07-29T01:15:44;11.80;;;10.30;;
52650;SDS011;38537;47.226;39.702;2022-07-29T01:18:24;17.60;;;11.38;;
52650;SDS011;38537;47.226;39.702;2022-07-29T01:21:03;14.23;;;10.82;;
52650;SDS011;38537;47.226;39.702;2022-07-29T01:29:13;13.50;;;11.20;;
52650;SDS011;38537;47.226;39.702;2022-07-29T01:37:18;15.43;;;11.15;;
52650;SDS011;38537;47.226;39.702;2022-07-29T01:39:49;13.10;;;10.98;;
52650;SDS011;38537;47.226;39.702;2022-07-29T01:48:12;15.95;;;11.30;;
52650;SDS011;38537;47.226;39.702;2022-07-29T01:50:47;13.20;;;10.27;;
52650;SDS011;38537;47.226;39.702;2022-07-29T01:53:38;13.30;;;10.35;;
52650;SDS011;38537;47.226;39.702;2022-07-29T01:56:09;12.38;;;10.07;;
52650;SDS011;38537;47.226;39.702;2022-07-29T01:58:39;12.80;;;9.77;;
52650;SDS011;38537;47.226;39.702;2022-07-29T02:01:09;14.20;;;9.85;;
52650;SDS011;38537;47.226;39.702;2022-07-29T02:03:39;11.05;;;9.65;;
52650;SDS011;38537;47.226;39.702;2022-07-29T02:06:13;13.52;;;10.20;;
52650;SDS011;38537;47.226;39.702;2022-07-29T02:08:45;14.00;;;10.45;;
52650;SDS011;38537;47.226;39.702;2022-07-29T02:11:13;14.55;;;10.93;;
52650;SDS011;38537;47.226;39.702;2022-07-29T02:13:41;16.10;;;10.85;;
52650;SDS011;38537;47.226;39.702;2022-07-29T02:16:10;13.25;;;10.18;;
52650;SDS011;38537;47.226;39.702;2022-07-29T02:18:39;10.90;;;9.88;;
52650;SDS011;38537;47.226;39.702;2022-07-29T02:21:08;11.40;;;10.07;;
52650;SDS011;38537;47.226;39.702;2022-07-29T02:23:41;12.98;;;9.32;;
52650;SDS011;38537;47.226;39.702;2022-07-29T02:26:17;11.55;;;9.50;;
52650;SDS011;38537;47.226;39.702;2022-07-29T02:28:47;12.77;;;9.57;;
52650;SDS011;38537;47.226;39.702;2022-07-29T02:31:16;12.45;;;9.48;;
52650;SDS011;38537;47.226;39.702;2022-07-29T02:33:48;12.00;;;9.85;;
52650;SDS011;38537;47.226;39.702;2022-07-29T02:36:17;10.98;;;9.35;;
52650;SDS011;38537;47.226;39.702;2022-07-29T02:38:47;13.60;;;9.60;;
52650;SDS011;38537;47.226;39.702;2022-07-29T02:41:23;11.13;;;9.27;;
52650;SDS011;38537;47.226;39.702;2022-07-29T02:43:57;14.27;;;10.00;;
52650;SDS011;38537;47.226;39.702;2022-07-29T02:46:31;15.45;;;9.57;;
52650;SDS011;38537;47.226;39.702;2022-07-29T02:49:04;10.65;;;9.13;;
52650;SDS011;38537;47.226;39.702;2022-07-29T02:51:43;13.32;;;9.75;;
52650;SDS011;38537;47.226;39.702;2022-07-29T02:54:19;11.38;;;9.23;;
52650;SDS011;38537;47.226;39.702;2022-07-29T02:56:51;10.45;;;9.25;;
52650;SDS011;38537;47.226;39.702;2022-07-29T02:59:23;14.50;;;9.65;;
52650;SDS011;38537;47.226;39.702;2022-07-29T03:01:54;13.75;;;9.65;;
52650;SDS011;38537;47.226;39.702;2022-07-29T03:04:22;10.77;;;9.50;;
52650;SDS011;38537;47.226;39.702;2022-07-29T03:06:52;11.80;;;9.35;;
52650;SDS011;38537;47.226;39.702;2022-07-29T03:09:21;11.13;;;9.75;;
52650;SDS011;38537;47.226;39.702;2022-07-29T03:11:50;15.93;;;9.43;;
52650;SDS011;38537;47.226;39.702;2022-07-29T03:14:18;12.70;;;9.80;;
52650;SDS011;38537;47.226;39.702;2022-07-29T03:16:47;11.35;;;10.10;;
52650;SDS011;38537;47.226;39.702;2022-07-29T03:19:15;15.95;;;10.00;;
52650;SDS011;38537;47.226;39.702;2022-07-29T03:21:44;11.63;;;9.80;;
52650;SDS011;38537;47.226;39.702;2022-07-29T03:24:23;16.30;;;10.43;;
52650;SDS011;38537;47.226;39.702;2022-07-29T03:26:59;11.45;;;9.73;;
52650;SDS011;38537;47.226;39.702;2022-07-29T03:29:27;13.57;;;10.45;;
52650;SDS011;38537;47.226;39.702;2022-07-29T03:32:03;12.98;;;10.07;;
52650;SDS011;38537;47.226;39.702;2022-07-29T03:34:34;13.50;;;10.15;;
52650;SDS011;38537;47.226;39.702;2022-07-29T03:37:03;14.07;;;9.82;;
52650;SDS011;38537;47.226;39.702;2022-07-29T03:39:34;10.05;;;8.88;;
52650;SDS011;38537;47.226;39.702;2022-07-29T03:42:06;15.23;;;10.23;;
52650;SDS011;38537;47.226;39.702;2022-07-29T03:44:35;16.05;;;9.38;;
52650;SDS011;38537;47.226;39.702;2022-07-29T03:47:03;14.55;;;9.80;;
52650;SDS011;38537;47.226;39.702;2022-07-29T03:49:35;12.57;;;9.57;;
52650;SDS011;38537;47.226;39.702;2022-07-29T03:52:04;12.88;;;10.13;;
52650;SDS011;38537;47.226;39.702;2022-07-29T03:54:33;11.20;;;9.48;;
52650;SDS011;38537;47.226;39.702;2022-07-29T03:57:01;12.32;;;9.43;;
52650;SDS011;38537;47.226;39.702;2022-07-29T03:59:29;14.50;;;9.52;;
52650;SDS011;38537;47.226;39.702;2022-07-29T04:02:00;12.52;;;10.00;;
52650;SDS011;38537;47.226;39.702;2022-07-29T04:04:31;11.23;;;9.65;;
52650;SDS011;38537;47.226;39.702;2022-07-29T04:07:00;12.35;;;9.35;;
52650;SDS011;38537;47.226;39.702;2022-07-29T04:09:27;15.15;;;9.70;;
52650;SDS011;38537;47.226;39.702;2022-07-29T04:11:55;14.38;;;9.90;;
52650;SDS011;38537;47.226;39.702;2022-07-29T04:16:58;11.48;;;9.77;;
52650;SDS011;38537;47.226;39.702;2022-07-29T04:19:25;11.15;;;9.43;;
52650;SDS011;38537;47.226;39.702;2022-07-29T04:21:53;13.32;;;9.77;;
52650;SDS011;38537;47.226;39.702;2022-07-29T04:24:20;12.75;;;9.60;;
52650;SDS011;38537;47.226;39.702;2022-07-29T04:26:48;14.27;;;9.52;;
52650;SDS011;38537;47.226;39.702;2022-07-29T04:29:15;12.18;;;9.88;;
52650;SDS011;38537;47.226;39.702;2022-07-29T04:31:42;12.35;;;9.68;;
52650;SDS011;38537;47.226;39.702;2022-07-29T04:34:10;14.30;;;10.05;;
52650;SDS011;38537;47.226;39.702;2022-07-29T04:36:39;13.05;;;9.70;;
52650;SDS011;38537;47.226;39.702;2022-07-29T04:39:07;11.88;;;9.73;;
52650;SDS011;38537;47.226;39.702;2022-07-29T04:41:34;11.00;;;9.88;;
52650;SDS011;38537;47.226;39.702;2022-07-29T04:44:01;14.25;;;9.82;;
52650;SDS011;38537;47.226;39.702;2022-07-29T04:46:33;11.70;;;9.73;;
52650;SDS011;38537;47.226;39.702;2022-07-29T04:49:02;13.25;;;9.57;;
52650;SDS011;38537;47.226;39.702;2022-07-29T04:51:30;13.25;;;9.70;;
52650;SDS011;38537;47.226;39.702;2022-07-29T04:53:58;11.90;;;10.68;;
52650;SDS011;38537;47.226;39.702;2022-07-29T04:56:25;11.30;;;9.63;;
52650;SDS011;38537;47.226;39.702;2022-07-29T04:58:53;16.10;;;9.90;;
52650;SDS011;38537;47.226;39.702;2022-07-29T05:01:20;12.65;;;9.45;;
52650;SDS011;38537;47.226;39.702;2022-07-29T05:03:48;14.18;;;9.55;;
52650;SDS011;38537;47.226;39.702;2022-07-29T05:06:15;12.60;;;9.30;;
52650;SDS011;38537;47.226;39.702;2022-07-29T05:08:43;12.90;;;9.20;;
52650;SDS011;38537;47.226;39.702;2022-07-29T05:11:10;13.75;;;9.38;;
52650;SDS011;38537;47.226;39.702;2022-07-29T05:13:42;13.18;;;9.77;;
52650;SDS011;38537;47.226;39.702;2022-07-29T05:16:14;11.18;;;10.02;;
52650;SDS011;38537;47.226;39.702;2022-07-29T05:18:41;10.40;;;9.30;;
52650;SDS011;38537;47.226;39.702;2022-07-29T05:21:09;12.65;;;9.45;;
52650;SDS011;38537;47.226;39.702;2022-07-29T05:23:36;17.13;;;10.07;;
52650;SDS011;38537;47.226;39.702;2022-07-29T05:26:03;14.65;;;9.90;;
52650;SDS011;38537;47.226;39.702;2022-07-29T05:28:34;10.95;;;9.52;;
52650;SDS011;38537;47.226;39.702;2022-07-29T05:31:04;10.33;;;9.23;;
52650;SDS011;38537;47.226;39.702;2022-07-29T05:33:31;10.23;;;9.23;;
52650;SDS011;38537;47.226;39.702;2022-07-29T05:36:04;11.30;;;9.40;;
52650;SDS011;38537;47.226;39.702;2022-07-29T05:38:34;12.35;;;9.32;;
52650;SDS011;38537;47.226;39.702;2022-07-29T05:41:02;12.00;;;8.70;;
52650;SDS011;38537;47.226;39.702;2022-07-29T05:43:31;12.25;;;9.30;;
52650;SDS011;38537;47.226;39.702;2022-07-29T05:45:58;16.17;;;9.70;;
52650;SDS011;38537;47.226;39.702;2022-07-29T05:48:26;9.68;;;8.68;;
52650;SDS011;38537;47.226;39.702;2022-07-29T05:50:54;9.55;;;8.55;;
52650;SDS011;38537;47.226;39.702;2022-07-29T05:53:21;9.82;;;8.18;;
52650;SDS011;38537;47.226;39.702;2022-07-29T05:55:49;12.80;;;8.63;;
52650;SDS011;38537;47.226;39.702;2022-07-29T05:58:17;11.50;;;8.30;;
52650;SDS011;38537;47.226;39.702;2022-07-29T06:00:45;9.10;;;8.20;;
52650;SDS011;38537;47.226;39.702;2022-07-29T06:03:12;13.75;;;8.88;;
52650;SDS011;38537;47.226;39.702;2022-07-29T06:05:39;12.90;;;9.25;;
52650;SDS011;38537;47.226;39.702;2022-07-29T06:08:07;8.73;;;7.82;;
52650;SDS011;38537;47.226;39.702;2022-07-29T06:10:34;10.07;;;8.25;;
52650;SDS011;38537;47.226;39.702;2022-07-29T06:13:03;10.85;;;8.65;;
52650;SDS011;38537;47.226;39.702;2022-07-29T06:15:30;9.27;;;8.25;;
52650;SDS011;38537;47.226;39.702;2022-07-29T06:17:57;12.43;;;8.50;;
52650;SDS011;38537;47.226;39.702;2022-07-29T06:20:30;10.70;;;8.45;;
52650;SDS011;38537;47.226;39.702;2022-07-29T06:22:58;9.63;;;8.10;;
52650;SDS011;38537;47.226;39.702;2022-07-29T06:25:26;10.23;;;8.52;;
52650;SDS011;38537;47.226;39.702;2022-07-29T06:27:57;9.93;;;8.20;;
52650;SDS011;38537;47.226;39.702;2022-07-29T06:30:24;11.70;;;8.23;;
52650;SDS011;38537;47.226;39.702;2022-07-29T06:32:52;8.88;;;7.03;;
52650;SDS011;38537;47.226;39.702;2022-07-29T06:35:20;9.38;;;8.02;;
52650;SDS011;38537;47.226;39.702;2022-07-29T06:38:07;8.77;;;7.55;;
52650;SDS011;38537;47.226;39.702;2022-07-29T06:40:54;8.52;;;7.55;;
52650;SDS011;38537;47.226;39.702;2022-07-29T06:43:33;8.60;;;7.60;;
52650;SDS011;38537;47.226;39.702;2022-07-29T06:46:18;11.38;;;6.97;;
52650;SDS011;38537;47.226;39.702;2022-07-29T06:48:47;11.32;;;7.30;;
52650;SDS011;38537;47.226;39.702;2022-07-29T06:51:15;11.32;;;7.65;;
52650;SDS011;38537;47.226;39.702;2022-07-29T06:53:52;10.05;;;7.20;;
52650;SDS011;38537;47.226;39.702;2022-07-29T06:56:29;9.82;;;7.07;;
52650;SDS011;38537;47.226;39.702;2022-07-29T06:59:06;8.35;;;6.25;;
52650;SDS011;38537;47.226;39.702;2022-07-29T07:01:35;8.70;;;7.00;;
52650;SDS011;38537;47.226;39.702;2022-07-29T07:04:06;8.80;;;7.15;;
52650;SDS011;38537;47.226;39.702;2022-07-29T07:06:35;9.20;;;6.70;;
52650;SDS011;38537;47.226;39.702;2022-07-29T07:09:03;13.00;;;7.10;;
52650;SDS011;38537;47.226;39.702;2022-07-29T07:11:31;9.75;;;7.60;;
52650;SDS011;38537;47.226;39.702;2022-07-29T07:13:59;9.65;;;8.18;;
52650;SDS011;38537;47.226;39.702;2022-07-29T07:16:30;8.57;;;6.90;;
52650;SDS011;38537;47.226;39.702;2022-07-29T07:18:59;9.32;;;7.03;;
52650;SDS011;38537;47.226;39.702;2022-07-29T07:21:26;8.10;;;7.30;;
52650;SDS011;38537;47.226;39.702;2022-07-29T07:23:57;7.68;;;6.38;;
52650;SDS011;38537;47.226;39.702;2022-07-29T07:26:25;8.55;;;6.95;;
52650;SDS011;38537;47.226;39.702;2022-07-29T07:28:52;10.73;;;7.10;;
52650;SDS011;38537;47.226;39.702;2022-07-29T07:31:19;10.55;;;7.28;;
52650;SDS011;38537;47.226;39.702;2022-07-29T07:33:47;10.02;;;7.50;;
52650;SDS011;38537;47.226;39.702;2022-07-29T07:36:14;9.45;;;6.70;;
52650;SDS011;38537;47.226;39.702;2022-07-29T07:38:42;11.25;;;7.00;;
52650;SDS011;38537;47.226;39.702;2022-07-29T07:41:09;9.40;;;6.88;;
52650;SDS011;38537;47.226;39.702;2022-07-29T07:43:36;11.25;;;6.65;;
52650;SDS011;38537;47.226;39.702;2022-07-29T07:46:04;6.57;;;5.70;;
52650;SDS011;38537;47.226;39.702;2022-07-29T07:48:31;7.75;;;6.50;;
52650;SDS011;38537;47.226;39.702;2022-07-29T07:51:01;10.80;;;6.40;;
52650;SDS011;38537;47.226;39.702;2022-07-29T07:53:29;11.63;;;6.55;;
52650;SDS011;38537;47.226;39.702;2022-07-29T07:55:58;9.88;;;6.65;;
52650;SDS011;38537;47.226;39.702;2022-07-29T07:58:41;8.02;;;6.18;;
52650;SDS011;38537;47.226;39.702;2022-07-29T08:01:08;7.38;;;6.63;;
52650;SDS011;38537;47.226;39.702;2022-07-29T08:03:37;7.30;;;6.65;;
52650;SDS011;38537;47.226;39.702;2022-07-29T08:06:05;7.40;;;6.57;;
52650;SDS011;38537;47.226;39.702;2022-07-29T08:08:33;8.35;;;6.47;;
52650;SDS011;38537;47.226;39.702;2022-07-29T08:11:00;10.45;;;6.95;;
52650;SDS011;38537;47.226;39.702;2022-07-29T08:13:35;10.98;;;5.82;;
52650;SDS011;38537;47.226;39.702;2022-07-29T08:16:05;8.40;;;6.18;;
52650;SDS011;38537;47.226;39.702;2022-07-29T08:18:40;7.47;;;6.18;;
52650;SDS011;38537;47.226;39.702;2022-07-29T08:21:09;7.43;;;6.07;;
52650;SDS011;38537;47.226;39.702;2022-07-29T08:23:41;6.82;;;6.10;;
52650;SDS011;38537;47.226;39.702;2022-07-29T08:26:20;6.57;;;5.90;;
52650;SDS011;38537;47.226;39.702;2022-07-29T08:28:49;7.32;;;6.15;;
52650;SDS011;38537;47.226;39.702;2022-07-29T08:31:17;7.35;;;6.25;;
52650;SDS011;38537;47.226;39.702;2022-07-29T08:33:45;7.43;;;6.20;;
52650;SDS011;38537;47.226;39.702;2022-07-29T08:36:12;11.38;;;6.30;;
52650;SDS011;38537;47.226;39.702;2022-07-29T08:38:40;6.70;;;5.60;;
52650;SDS011;38537;47.226;39.702;2022-07-29T08:41:07;6.93;;;6.10;;
52650;SDS011;38537;47.226;39.702;2022-07-29T08:43:35;8.30;;;6.20;;
52650;SDS011;38537;47.226;39.702;2022-07-29T08:46:04;10.70;;;6.18;;
52650;SDS011;38537;47.226;39.702;2022-07-29T08:48:31;8.13;;;6.32;;
52650;SDS011;38537;47.226;39.702;2022-07-29T08:51:00;10.32;;;6.97;;
52650;SDS011;38537;47.226;39.702;2022-07-29T08:53:30;6.80;;;6.10;;
52650;SDS011;38537;47.226;39.702;2022-07-29T08:55:59;6.82;;;6.15;;
52650;SDS011;38537;47.226;39.702;2022-07-29T08:58:31;6.90;;;6.03;;
52650;SDS011;38537;47.226;39.702;2022-07-29T09:01:03;7.05;;;6.35;;
52650;SDS011;38537;47.226;39.702;2022-07-29T09:03:38;7.72;;;6.47;;
52650;SDS011;38537;47.226;39.702;2022-07-29T09:06:08;6.57;;;5.97;;
52650;SDS011;38537;47.226;39.702;2022-07-29T09:08:36;6.93;;;6.07;;
52650;SDS011;38537;47.226;39.702;2022-07-29T09:11:03;6.72;;;6.07;;
52650;SDS011;38537;47.226;39.702;2022-07-29T09:13:31;7.63;;;6.28;;
52650;SDS011;38537;47.226;39.702;2022-07-29T09:15:59;7.32;;;6.07;;
52650;SDS011;38537;47.226;39.702;2022-07-29T09:21:12;8.32;;;6.35;;
52650;SDS011;38537;47.226;39.702;2022-07-29T09:24:12;9.18;;;6.40;;
52650;SDS011;38537;47.226;39.702;2022-07-29T09:26:42;7.47;;;6.18;;
52650;SDS011;38537;47.226;39.702;2022-07-29T09:29:15;8.45;;;6.70;;
52650;SDS011;38537;47.226;39.702;2022-07-29T09:31:45;8.02;;;6.18;;
52650;SDS011;38537;47.226;39.702;2022-07-29T09:34:16;7.50;;;6.38;;
52650;SDS011;38537;47.226;39.702;2022-07-29T09:36:49;8.13;;;6.20;;
52650;SDS011;38537;47.226;39.702;2022-07-29T09:39:27;7.47;;;6.00;;
52650;SDS011;38537;47.226;39.702;2022-07-29T09:41:59;6.90;;;6.20;;
52650;SDS011;38537;47.226;39.702;2022-07-29T09:44:42;6.80;;;6.05;;
52650;SDS011;38537;47.226;39.702;2022-07-29T09:47:15;6.85;;;6.10;;
52650;SDS011;38537;47.226;39.702;2022-07-29T09:49:59;6.88;;;6.13;;
52650;SDS011;38537;47.226;39.702;2022-07-29T09:52:29;7.85;;;6.03;;
52650;SDS011;38537;47.226;39.702;2022-07-29T09:55:07;6.85;;;5.90;;
52650;SDS011;38537;47.226;39.702;2022-07-29T09:57:44;11.10;;;6.00;;
52650;SDS011;38537;47.226;39.702;2022-07-29T10:00:17;6.45;;;5.80;;
52650;SDS011;38537;47.226;39.702;2022-07-29T10:02:46;6.77;;;6.07;;
52650;SDS011;38537;47.226;39.702;2022-07-29T10:07:57;6.15;;;5.65;;
52650;SDS011;38537;47.226;39.702;2022-07-29T10:10:29;7.43;;;5.80;;
52650;SDS011;38537;47.226;39.702;2022-07-29T10:13:01;5.95;;;5.30;;
52650;SDS011;38537;47.226;39.702;2022-07-29T10:15:37;6.15;;;5.22;;
52650;SDS011;38537;47.226;39.702;2022-07-29T10:18:08;6.10;;;5.43;;
52650;SDS011;38537;47.226;39.702;2022-07-29T10:20:36;7.82;;;5.63;;
52650;SDS011;38537;47.226;39.702;2022-07-29T10:23:04;7.78;;;5.40;;
52650;SDS011;38537;47.226;39.702;2022-07-29T10:25:32;6.35;;;5.32;;
52650;SDS011;38537;47.226;39.702;2022-07-29T10:28:00;5.53;;;5.10;;
52650;SDS011;38537;47.226;39.702;2022-07-29T10:30:27;5.93;;;5.25;;
52650;SDS011;38537;47.226;39.702;2022-07-29T10:44:22;5.30;;;4.90;;
52650;SDS011;38537;47.226;39.702;2022-07-29T10:46:51;5.82;;;5.22;;
52650;SDS011;38537;47.226;39.702;2022-07-29T10:49:24;5.57;;;5.07;;
52650;SDS011;38537;47.226;39.702;2022-07-29T11:02:43;6.22;;;5.63;;
52650;SDS011;38537;47.226;39.702;2022-07-29T11:05:16;6.18;;;5.55;;
52650;SDS011;38537;47.226;39.702;2022-07-29T11:10:47;6.20;;;5.43;;
52650;SDS011;38537;47.226;39.702;2022-07-29T11:16:19;6.00;;;5.50;;
52650;SDS011;38537;47.226;39.702;2022-07-29T11:21:44;6.03;;;5.43;;
52650;SDS011;38537;47.226;39.702;2022-07-29T11:24:28;5.93;;;5.38;;
52650;SDS011;38537;47.226;39.702;2022-07-29T11:30:06;5.88;;;5.32;;
52650;SDS011;38537;47.226;39.702;2022-07-29T11:32:37;6.72;;;5.10;;
52650;SDS011;38537;47.226;39.702;2022-07-29T11:35:16;6.90;;;5.00;;
52650;SDS011;38537;47.226;39.702;2022-07-29T11:38:24;9.27;;;5.65;;
52650;SDS011;38537;47.226;39.702;2022-07-29T11:43:57;7.72;;;5.40;;
52650;SDS011;38537;47.226;39.702;2022-07-29T11:49:22;11.05;;;5.88;;
52650;SDS011;38537;47.226;39.702;2022-07-29T11:51:59;7.68;;;5.88;;
52650;SDS011;38537;47.226;39.702;2022-07-29T11:54:31;16.38;;;5.80;;
52650;SDS011;38537;47.226;39.702;2022-07-29T11:57:20;7.07;;;5.90;;
52650;SDS011;38537;47.226;39.702;2022-07-29T11:59:47;11.27;;;5.97;;
52650;SDS011;38537;47.226;39.702;2022-07-29T12:02:16;8.00;;;5.70;;
52650;SDS011;38537;47.226;39.702;2022-07-29T12:05:04;10.32;;;6.00;;
52650;SDS011;38537;47.226;39.702;2022-07-29T12:07:37;5.97;;;5.47;;
52650;SDS011;38537;47.226;39.702;2022-07-29T12:10:11;9.32;;;6.10;;
52650;SDS011;38537;47.226;39.702;2022-07-29T12:12:55;6.53;;;5.40;;
52650;SDS011;38537;47.226;39.702;2022-07-29T12:15:22;9.25;;;5.68;;
52650;SDS011;38537;47.226;39.702;2022-07-29T12:18:17;6.45;;;5.80;;
52650;SDS011;38537;47.226;39.702;2022-07-29T12:21:00;9.18;;;6.03;;
52650;SDS011;38537;47.226;39.702;2022-07-29T12:23:32;6.40;;;5.80;;
52650;SDS011;38537;47.226;39.702;2022-07-29T12:26:03;7.20;;;5.90;;
52650;SDS011;38537;47.226;39.702;2022-07-29T12:28:48;6.13;;;5.53;;
52650;SDS011;38537;47.226;39.702;2022-07-29T12:31:15;10.65;;;7.10;;
52650;SDS011;38537;47.226;39.702;2022-07-29T12:34:03;6.72;;;5.90;;
52650;SDS011;38537;47.226;39.702;2022-07-29T12:36:30;7.88;;;5.90;;
52650;SDS011;38537;47.226;39.702;2022-07-29T12:38:59;6.43;;;5.82;;
52650;SDS011;38537;47.226;39.702;2022-07-29T12:41:29;6.93;;;5.68;;
52650;SDS011;38537;47.226;39.702;2022-07-29T12:43:57;7.32;;;5.82;;
52650;SDS011;38537;47.226;39.702;2022-07-29T12:46:25;6.60;;;6.00;;
52650;SDS011;38537;47.226;39.702;2022-07-29T12:48:53;6.70;;;6.00;;
52650;SDS011;38537;47.226;39.702;2022-07-29T12:51:29;8.43;;;6.17;;
52650;SDS011;38537;47.226;39.702;2022-07-29T12:54:02;6.60;;;5.80;;
52650;SDS011;38537;47.226;39.702;2022-07-29T12:56:59;7.05;;;6.00;;
52650;SDS011;38537;47.226;39.702;2022-07-29T12:59:27;6.22;;;5.60;;
52650;SDS011;38537;47.226;39.702;2022-07-29T13:01:54;7.43;;;5.82;;
52650;SDS011;38537;47.226;39.702;2022-07-29T13:04:29;6.20;;;5.60;;
52650;SDS011;38537;47.226;39.702;2022-07-29T13:06:58;6.13;;;5.45;;
52650;SDS011;38537;47.226;39.702;2022-07-29T13:09:41;7.90;;;5.55;;
52650;SDS011;38537;47.226;39.702;2022-07-29T13:12:15;7.32;;;5.63;;
52650;SDS011;38537;47.226;39.702;2022-07-29T13:14:43;9.15;;;5.90;;
52650;SDS011;38537;47.226;39.702;2022-07-29T13:19:43;7.10;;;5.45;;
52650;SDS011;38537;47.226;39.702;2022-07-29T13:22:42;7.05;;;5.50;;
52650;SDS011;38537;47.226;39.702;2022-07-29T13:25:14;6.47;;;5.68;;
52650;SDS011;38537;47.226;39.702;2022-07-29T13:27:52;5.90;;;5.50;;
52650;SDS011;38537;47.226;39.702;2022-07-29T13:30:21;8.70;;;5.75;;
52650;SDS011;38537;47.226;39.702;2022-07-29T13:32:51;6.90;;;6.00;;
52650;SDS011;38537;47.226;39.702;2022-07-29T13:35:19;5.97;;;5.38;;
52650;SDS011;38537;47.226;39.702;2022-07-29T13:37:47;5.97;;;5.43;;
52650;SDS011;38537;47.226;39.702;2022-07-29T13:40:17;6.05;;;5.45;;
52650;SDS011;38537;47.226;39.702;2022-07-29T13:42:44;6.18;;;5.60;;
52650;SDS011;38537;47.226;39.702;2022-07-29T13:45:12;6.13;;;5.63;;
52650;SDS011;38537;47.226;39.702;2022-07-29T13:47:40;6.80;;;5.20;;
52650;SDS011;38537;47.226;39.702;2022-07-29T13:50:15;6.78;;;5.30;;
52650;SDS011;38537;47.226;39.702;2022-07-29T13:52:42;7.88;;;5.53;;
52650;SDS011;38537;47.226;39.702;2022-07-29T13:55:09;6.72;;;5.57;;
52650;SDS011;38537;47.226;39.702;2022-07-29T13:57:37;5.85;;;5.20;;
52650;SDS011;38537;47.226;39.702;2022-07-29T14:00:04;5.65;;;5.07;;
52650;SDS011;38537;47.226;39.702;2022-07-29T14:02:34;7.35;;;5.63;;
52650;SDS011;38537;47.226;39.702;2022-07-29T14:05:01;6.07;;;5.57;;
52650;SDS011;38537;47.226;39.702;2022-07-29T14:07:34;5.90;;;5.40;;
52650;SDS011;38537;47.226;39.702;2022-07-29T14:10:01;7.22;;;5.70;;
52650;SDS011;38537;47.226;39.702;2022-07-29T14:12:30;7.97;;;5.95;;
52650;SDS011;38537;47.226;39.702;2022-07-29T14:14:58;6.03;;;5.43;;
52650;SDS011;38537;47.226;39.702;2022-07-29T14:17:25;6.45;;;5.63;;
52650;SDS011;38537;47.226;39.702;2022-07-29T14:19:53;5.50;;;5.00;;
52650;SDS011;38537;47.226;39.702;2022-07-29T14:22:20;6.40;;;5.43;;
52650;SDS011;38537;47.226;39.702;2022-07-29T14:24:51;6.40;;;5.80;;
52650;SDS011;38537;47.226;39.702;2022-07-29T14:27:19;8.55;;;5.82;;
52650;SDS011;38537;47.226;39.702;2022-07-29T14:30:04;6.40;;;5.72;;
52650;SDS011;38537;47.226;39.702;2022-07-29T14:32:33;7.78;;;6.00;;
52650;SDS011;38537;47.226;39.702;2022-07-29T14:35:00;5.97;;;5.38;;
52650;SDS011;38537;47.226;39.702;2022-07-29T14:37:29;7.80;;;5.47;;
52650;SDS011;38537;47.226;39.702;2022-07-29T14:40:06;6.70;;;5.53;;
52650;SDS011;38537;47.226;39.702;2022-07-29T14:42:36;6.45;;;5.47;;
52650;SDS011;38537;47.226;39.702;2022-07-29T14:45:05;7.25;;;5.85;;
52650;SDS011;38537;47.226;39.702;2022-07-29T14:47:34;10.32;;;5.80;;
52650;SDS011;38537;47.226;39.702;2022-07-29T14:50:02;6.75;;;5.30;;
52650;SDS011;38537;47.226;39.702;2022-07-29T14:52:31;6.35;;;5.35;;
52650;SDS011;38537;47.226;39.702;2022-07-29T14:54:58;5.85;;;5.28;;
52650;SDS011;38537;47.226;39.702;2022-07-29T14:57:26;8.70;;;5.28;;
52650;SDS011;38537;47.226;39.702;2022-07-29T14:59:54;9.20;;;5.53;;
52650;SDS011;38537;47.226;39.702;2022-07-29T15:02:22;8.73;;;5.25;;
52650;SDS011;38537;47.226;39.702;2022-07-29T15:05:10;8.93;;;5.25;;
52650;SDS011;38537;47.226;39.702;2022-07-29T15:07:37;5.95;;;5.22;;
52650;SDS011;38537;47.226;39.702;2022-07-29T15:10:05;7.40;;;5.15;;
52650;SDS011;38537;47.226;39.702;2022-07-29T15:12:34;5.45;;;4.93;;
52650;SDS011;38537;47.226;39.702;2022-07-29T15:15:01;7.03;;;4.95;;
52650;SDS011;38537;47.226;39.702;2022-07-29T15:17:30;7.88;;;5.70;;
52650;SDS011;38537;47.226;39.702;2022-07-29T15:19:57;8.63;;;5.88;;
52650;SDS011;38537;47.226;39.702;2022-07-29T15:22:24;11.95;;;5.45;;
52650;SDS011;38537;47.226;39.702;2022-07-29T15:24:52;8.00;;;5.13;;
52650;SDS011;38537;47.226;39.702;2022-07-29T15:27:19;7.88;;;5.63;;
52650;SDS011;38537;47.226;39.702;2022-07-29T15:29:47;5.78;;;4.90;;
52650;SDS011;38537;47.226;39.702;2022-07-29T15:32:14;7.78;;;5.10;;
52650;SDS011;38537;47.226;39.702;2022-07-29T15:34:42;6.97;;;4.88;;
52650;SDS011;38537;47.226;39.702;2022-07-29T15:37:09;10.30;;;4.88;;
52650;SDS011;38537;47.226;39.702;2022-07-29T15:39:38;11.55;;;5.43;;
52650;SDS011;38537;47.226;39.702;2022-07-29T15:42:05;5.45;;;4.93;;
52650;SDS011;38537;47.226;39.702;2022-07-29T15:44:33;7.55;;;5.10;;
52650;SDS011;38537;47.226;39.702;2022-07-29T15:47:01;8.27;;;5.35;;
52650;SDS011;38537;47.226;39.702;2022-07-29T15:49:40;9.23;;;5.30;;
52650;SDS011;38537;47.226;39.702;2022-07-29T15:52:16;8.05;;;4.75;;
52650;SDS011;38537;47.226;39.702;2022-07-29T15:54:55;8.23;;;5.15;;